sensor_id;sensor_type;location;lat;lon;timestamp;pressure;altitude;pressure_sealevel;temperature;humidity
3150;BME280;32503;47.748;8.960;2022-10-29T00:00:52;97762.91;;;13.98;73.55
3150;BME280;32503;47.748;8.960;2022-10-29T00:03:20;97771.69;;;13.92;73.79
3150;BME280;32503;47.748;8.960;2022-10-29T00:05:59;97769.16;;;13.83;74.00
3150;BME280;32503;47.748;8.960;2022-10-29T00:08:28;97781.97;;;13.82;73.76
3150;BME280;32503;47.748;8.960;2022-10-29T00:11:04;97784.34;;;13.84;73.80
3150;BME280;32503;47.748;8.960;2022-10-29T00:13:32;97778.19;;;13.87;73.76
3150;BME280;32503;47.748;8.960;2022-10-29T00:16:05;97771.25;;;13.90;73.33
3150;BME280;32503;47.748;8.960;2022-10-29T00:18:32;97779.22;;;13.98;73.06
3150;BME280;32503;47.748;8.960;2022-10-29T00:21:00;97769.56;;;14.01;72.68
3150;BME280;32503;47.748;8.960;2022-10-29T00:23:27;97765.97;;;13.97;72.70
3150;BME280;32503;47.748;8.960;2022-10-29T00:25:56;97771.34;;;13.93;72.53
3150;BME280;32503;47.748;8.960;2022-10-29T00:28:23;97755.56;;;13.83;72.62
3150;BME280;32503;47.748;8.960;2022-10-29T00:30:50;97720.19;;;13.63;72.62
3150;BME280;32503;47.748;8.960;2022-10-29T00:33:19;97761.88;;;13.87;72.43
3150;BME280;32503;47.748;8.960;2022-10-29T00:35:54;97744.28;;;13.65;72.51
3150;BME280;32503;47.748;8.960;2022-10-29T00:38:22;97757.41;;;13.79;72.54
3150;BME280;32503;47.748;8.960;2022-10-29T00:40:50;97764.72;;;13.75;72.73
3150;BME280;32503;47.748;8.960;2022-10-29T00:43:19;97741.41;;;13.58;72.82
3150;BME280;32503;47.748;8.960;2022-10-29T00:45:51;97763.56;;;13.76;73.35
3150;BME280;32503;47.748;8.960;2022-10-29T00:48:22;97757.69;;;13.74;73.60
3150;BME280;32503;47.748;8.960;2022-10-29T00:50:51;97770.59;;;13.77;73.67
3150;BME280;32503;47.748;8.960;2022-10-29T00:53:22;97774.84;;;13.78;73.77
3150;BME280;32503;47.748;8.960;2022-10-29T00:55:50;97772.50;;;13.76;73.88
3150;BME280;32503;47.748;8.960;2022-10-29T00:58:18;97772.56;;;13.80;73.79
3150;BME280;32503;47.748;8.960;2022-10-29T01:00:46;97773.47;;;13.84;73.46
3150;BME280;32503;47.748;8.960;2022-10-29T01:03:13;97775.03;;;13.85;73.59
3150;BME280;32503;47.748;8.960;2022-10-29T01:05:43;97758.31;;;13.67;73.59
3150;BME280;32503;47.748;8.960;2022-10-29T01:08:11;97787.06;;;13.84;73.87
3150;BME280;32503;47.748;8.960;2022-10-29T01:10:50;97764.63;;;13.71;73.75
3150;BME280;32503;47.748;8.960;2022-10-29T01:13:41;97771.53;;;13.84;73.57
3150;BME280;32503;47.748;8.960;2022-10-29T01:16:18;97781.25;;;13.86;73.45
3150;BME280;32503;47.748;8.960;2022-10-29T01:18:56;97770.75;;;13.84;73.34
3150;BME280;32503;47.748;8.960;2022-10-29T01:21:38;97765.56;;;13.79;73.52
3150;BME280;32503;47.748;8.960;2022-10-29T01:24:37;97756.34;;;13.83;73.33
3150;BME280;32503;47.748;8.960;2022-10-29T01:27:50;97757.50;;;13.82;73.54
3150;BME280;32503;47.748;8.960;2022-10-29T01:30:58;97736.22;;;13.69;73.50
3150;BME280;32503;47.748;8.960;2022-10-29T01:33:33;97760.31;;;13.86;73.26
3150;BME280;32503;47.748;8.960;2022-10-29T01:36:14;97761.09;;;13.87;73.65
3150;BME280;32503;47.748;8.960;2022-10-29T01:38:51;97754.72;;;13.79;74.24
3150;BME280;32503;47.748;8.960;2022-10-29T01:41:24;97750.31;;;13.74;74.68
3150;BME280;32503;47.748;8.960;2022-10-29T01:44:00;97739.38;;;13.71;74.66
3150;BME280;32503;47.748;8.960;2022-10-29T01:46:36;97746.28;;;13.84;74.67
3150;BME280;32503;47.748;8.960;2022-10-29T01:49:11;97728.75;;;13.81;74.04
3150;BME280;32503;47.748;8.960;2022-10-29T01:51:40;97739.84;;;13.92;74.21
3150;BME280;32503;47.748;8.960;2022-10-29T01:54:10;97716.47;;;13.88;74.22
3150;BME280;32503;47.748;8.960;2022-10-29T01:56:38;97741.75;;;14.08;73.79
3150;BME280;32503;47.748;8.960;2022-10-29T01:59:08;97743.75;;;14.11;73.64
3150;BME280;32503;47.748;8.960;2022-10-29T02:01:48;97749.91;;;14.08;74.03
3150;BME280;32503;47.748;8.960;2022-10-29T02:04:40;97739.81;;;14.08;74.09
3150;BME280;32503;47.748;8.960;2022-10-29T02:07:19;97724.06;;;13.98;74.24
3150;BME280;32503;47.748;8.960;2022-10-29T02:09:58;97738.53;;;14.02;74.42
3150;BME280;32503;47.748;8.960;2022-10-29T02:12:33;97751.34;;;14.01;74.45
3150;BME280;32503;47.748;8.960;2022-10-29T02:15:05;97735.56;;;13.91;74.58
3150;BME280;32503;47.748;8.960;2022-10-29T02:17:36;97740.38;;;13.98;74.63
3150;BME280;32503;47.748;8.960;2022-10-29T02:20:06;97734.59;;;13.99;74.50
3150;BME280;32503;47.748;8.960;2022-10-29T02:22:34;97733.50;;;14.04;74.49
3150;BME280;32503;47.748;8.960;2022-10-29T02:25:02;97731.22;;;14.06;74.01
3150;BME280;32503;47.748;8.960;2022-10-29T02:27:29;97729.72;;;14.09;73.83
3150;BME280;32503;47.748;8.960;2022-10-29T02:29:56;97732.09;;;14.10;73.72
3150;BME280;32503;47.748;8.960;2022-10-29T02:32:23;97731.28;;;14.10;73.99
3150;BME280;32503;47.748;8.960;2022-10-29T02:34:51;97719.34;;;13.95;74.05
3150;BME280;32503;47.748;8.960;2022-10-29T02:37:18;97732.31;;;14.01;73.74
3150;BME280;32503;47.748;8.960;2022-10-29T02:39:45;97720.63;;;14.01;73.84
3150;BME280;32503;47.748;8.960;2022-10-29T02:42:12;97727.63;;;14.02;74.09
3150;BME280;32503;47.748;8.960;2022-10-29T02:44:39;97717.28;;;14.08;73.60
3150;BME280;32503;47.748;8.960;2022-10-29T02:47:06;97718.44;;;14.07;73.47
3150;BME280;32503;47.748;8.960;2022-10-29T02:49:33;97725.00;;;14.06;73.71
3150;BME280;32503;47.748;8.960;2022-10-29T02:52:02;97724.94;;;14.02;73.86
3150;BME280;32503;47.748;8.960;2022-10-29T02:54:29;97719.47;;;14.02;73.74
3150;BME280;32503;47.748;8.960;2022-10-29T02:56:56;97716.13;;;14.09;73.55
3150;BME280;32503;47.748;8.960;2022-10-29T02:59:23;97718.50;;;14.10;73.47
3150;BME280;32503;47.748;8.960;2022-10-29T03:01:50;97712.19;;;14.06;73.46
3150;BME280;32503;47.748;8.960;2022-10-29T03:04:17;97716.34;;;14.00;73.65
3150;BME280;32503;47.748;8.960;2022-10-29T03:06:44;97724.16;;;14.01;73.67
3150;BME280;32503;47.748;8.960;2022-10-29T03:09:13;97715.56;;;13.99;73.70
3150;BME280;32503;47.748;8.960;2022-10-29T03:11:40;97728.00;;;14.00;73.95
3150;BME280;32503;47.748;8.960;2022-10-29T03:14:07;97726.50;;;14.03;73.96
3150;BME280;32503;47.748;8.960;2022-10-29T03:16:34;97726.13;;;14.04;73.95
3150;BME280;32503;47.748;8.960;2022-10-29T03:19:01;97717.75;;;13.94;73.67
3150;BME280;32503;47.748;8.960;2022-10-29T03:21:28;97726.97;;;13.89;74.32
3150;BME280;32503;47.748;8.960;2022-10-29T03:23:55;97737.19;;;13.96;74.38
3150;BME280;32503;47.748;8.960;2022-10-29T03:26:24;97737.13;;;13.92;74.75
3150;BME280;32503;47.748;8.960;2022-10-29T03:28:51;97722.47;;;13.97;74.54
3150;BME280;32503;47.748;8.960;2022-10-29T03:31:18;97720.47;;;13.94;74.85
3150;BME280;32503;47.748;8.960;2022-10-29T03:33:45;97715.97;;;13.82;75.44
3150;BME280;32503;47.748;8.960;2022-10-29T03:36:12;97695.63;;;13.76;75.65
3150;BME280;32503;47.748;8.960;2022-10-29T03:38:39;97697.22;;;13.77;75.65
3150;BME280;32503;47.748;8.960;2022-10-29T03:41:06;97692.63;;;13.81;75.60
3150;BME280;32503;47.748;8.960;2022-10-29T03:43:37;97697.34;;;13.84;75.46
3150;BME280;32503;47.748;8.960;2022-10-29T03:46:05;97702.09;;;13.87;75.11
3150;BME280;32503;47.748;8.960;2022-10-29T03:48:32;97698.66;;;13.90;74.98
3150;BME280;32503;47.748;8.960;2022-10-29T03:51:01;97688.94;;;13.89;74.57
3150;BME280;32503;47.748;8.960;2022-10-29T03:53:31;97701.44;;;13.94;74.62
3150;BME280;32503;47.748;8.960;2022-10-29T03:55:58;97703.09;;;13.98;74.64
3150;BME280;32503;47.748;8.960;2022-10-29T03:58:26;97700.66;;;13.93;74.69
3150;BME280;32503;47.748;8.960;2022-10-29T04:00:57;97702.00;;;13.83;74.23
3150;BME280;32503;47.748;8.960;2022-10-29T04:03:25;97710.69;;;13.89;74.56
3150;BME280;32503;47.748;8.960;2022-10-29T04:05:53;97694.22;;;13.82;74.94
3150;BME280;32503;47.748;8.960;2022-10-29T04:08:21;97696.19;;;13.85;74.80
3150;BME280;32503;47.748;8.960;2022-10-29T04:10:49;97701.28;;;13.87;74.52
3150;BME280;32503;47.748;8.960;2022-10-29T04:13:17;97705.16;;;13.86;74.43
3150;BME280;32503;47.748;8.960;2022-10-29T04:15:45;97711.38;;;13.86;74.31
3150;BME280;32503;47.748;8.960;2022-10-29T04:18:13;97721.41;;;13.82;74.14
3150;BME280;32503;47.748;8.960;2022-10-29T04:20:40;97720.06;;;13.76;74.52
3150;BME280;32503;47.748;8.960;2022-10-29T04:23:07;97713.44;;;13.73;74.44
3150;BME280;32503;47.748;8.960;2022-10-29T04:25:34;97709.47;;;13.71;74.30
3150;BME280;32503;47.748;8.960;2022-10-29T04:28:01;97706.75;;;13.71;74.15
3150;BME280;32503;47.748;8.960;2022-10-29T04:30:29;97716.34;;;13.64;74.44
3150;BME280;32503;47.748;8.960;2022-10-29T04:32:56;97715.44;;;13.60;74.38
3150;BME280;32503;47.748;8.960;2022-10-29T04:35:26;97703.47;;;13.45;74.46
3150;BME280;32503;47.748;8.960;2022-10-29T04:37:53;97718.81;;;13.54;74.82
3150;BME280;32503;47.748;8.960;2022-10-29T04:40:21;97716.72;;;13.47;74.86
3150;BME280;32503;47.748;8.960;2022-10-29T04:42:49;97708.13;;;13.45;74.47
3150;BME280;32503;47.748;8.960;2022-10-29T04:45:16;97712.41;;;13.46;74.77
3150;BME280;32503;47.748;8.960;2022-10-29T04:47:44;97707.25;;;13.41;75.03
3150;BME280;32503;47.748;8.960;2022-10-29T04:50:11;97721.16;;;13.39;75.30
3150;BME280;32503;47.748;8.960;2022-10-29T04:52:40;97716.53;;;13.40;75.87
3150;BME280;32503;47.748;8.960;2022-10-29T04:55:07;97715.66;;;13.36;75.70
3150;BME280;32503;47.748;8.960;2022-10-29T04:57:35;97717.25;;;13.37;75.34
3150;BME280;32503;47.748;8.960;2022-10-29T05:00:03;97718.63;;;13.31;75.61
3150;BME280;32503;47.748;8.960;2022-10-29T05:02:30;97714.31;;;13.30;76.04
3150;BME280;32503;47.748;8.960;2022-10-29T05:04:57;97715.91;;;13.31;76.06
3150;BME280;32503;47.748;8.960;2022-10-29T05:07:24;97714.19;;;13.38;75.89
3150;BME280;32503;47.748;8.960;2022-10-29T05:09:52;97721.16;;;13.39;75.88
3150;BME280;32503;47.748;8.960;2022-10-29T05:12:19;97721.28;;;13.43;75.80
3150;BME280;32503;47.748;8.960;2022-10-29T05:14:46;97711.91;;;13.40;76.03
3150;BME280;32503;47.748;8.960;2022-10-29T05:17:13;97721.97;;;13.40;75.95
3150;BME280;32503;47.748;8.960;2022-10-29T05:19:40;97717.31;;;13.40;75.86
3150;BME280;32503;47.748;8.960;2022-10-29T05:22:07;97712.31;;;13.42;75.97
3150;BME280;32503;47.748;8.960;2022-10-29T05:24:34;97694.31;;;13.34;75.69
3150;BME280;32503;47.748;8.960;2022-10-29T05:27:04;97719.50;;;13.51;75.62
3150;BME280;32503;47.748;8.960;2022-10-29T05:29:31;97720.03;;;13.56;75.42
3150;BME280;32503;47.748;8.960;2022-10-29T05:31:58;97716.19;;;13.57;75.46
3150;BME280;32503;47.748;8.960;2022-10-29T05:34:25;97716.44;;;13.52;75.33
3150;BME280;32503;47.748;8.960;2022-10-29T05:36:52;97714.06;;;13.51;75.37
3150;BME280;32503;47.748;8.960;2022-10-29T05:39:19;97710.59;;;13.50;75.15
3150;BME280;32503;47.748;8.960;2022-10-29T05:41:46;97711.28;;;13.47;75.48
3150;BME280;32503;47.748;8.960;2022-10-29T05:44:15;97699.19;;;13.44;75.72
3150;BME280;32503;47.748;8.960;2022-10-29T05:46:42;97703.31;;;13.38;75.81
3150;BME280;32503;47.748;8.960;2022-10-29T05:49:09;97698.66;;;13.39;75.79
3150;BME280;32503;47.748;8.960;2022-10-29T05:51:38;97706.47;;;13.40;75.90
3150;BME280;32503;47.748;8.960;2022-10-29T05:54:05;97706.28;;;13.33;76.39
3150;BME280;32503;47.748;8.960;2022-10-29T05:56:32;97713.75;;;13.36;76.23
3150;BME280;32503;47.748;8.960;2022-10-29T05:58:59;97711.03;;;13.36;76.37
3150;BME280;32503;47.748;8.960;2022-10-29T06:01:28;97716.13;;;13.38;76.44
3150;BME280;32503;47.748;8.960;2022-10-29T06:03:55;97710.22;;;13.36;76.46
3150;BME280;32503;47.748;8.960;2022-10-29T06:06:22;97718.81;;;13.38;76.50
3150;BME280;32503;47.748;8.960;2022-10-29T06:08:49;97710.94;;;13.33;76.81
3150;BME280;32503;47.748;8.960;2022-10-29T06:11:16;97721.81;;;13.33;76.95
3150;BME280;32503;47.748;8.960;2022-10-29T06:13:43;97722.66;;;13.37;76.78
3150;BME280;32503;47.748;8.960;2022-10-29T06:16:10;97716.13;;;13.38;76.72
3150;BME280;32503;47.748;8.960;2022-10-29T06:18:38;97721.97;;;13.40;76.57
3150;BME280;32503;47.748;8.960;2022-10-29T06:21:05;97718.44;;;13.39;76.44
3150;BME280;32503;47.748;8.960;2022-10-29T06:23:32;97715.84;;;13.43;76.38
3150;BME280;32503;47.748;8.960;2022-10-29T06:25:59;97719.00;;;13.45;76.16
3150;BME280;32503;47.748;8.960;2022-10-29T06:28:28;97719.69;;;13.42;76.06
3150;BME280;32503;47.748;8.960;2022-10-29T06:30:55;97720.38;;;13.39;76.15
3150;BME280;32503;47.748;8.960;2022-10-29T06:33:22;97719.69;;;13.42;75.98
3150;BME280;32503;47.748;8.960;2022-10-29T06:35:51;97724.34;;;13.41;76.19
3150;BME280;32503;47.748;8.960;2022-10-29T06:38:18;97719.44;;;13.47;76.02
3150;BME280;32503;47.748;8.960;2022-10-29T06:40:51;97726.16;;;13.53;75.87
3150;BME280;32503;47.748;8.960;2022-10-29T06:43:19;97726.16;;;13.53;76.01
3150;BME280;32503;47.748;8.960;2022-10-29T06:45:47;97691.47;;;13.31;76.09
3150;BME280;32503;47.748;8.960;2022-10-29T06:48:15;97720.47;;;13.42;76.23
3150;BME280;32503;47.748;8.960;2022-10-29T06:50:42;97726.88;;;13.50;76.08
3150;BME280;32503;47.748;8.960;2022-10-29T06:53:12;97721.06;;;13.52;76.26
3150;BME280;32503;47.748;8.960;2022-10-29T06:55:40;97692.78;;;13.37;76.67
3150;BME280;32503;47.748;8.960;2022-10-29T06:58:11;97709.41;;;13.51;76.62
3150;BME280;32503;47.748;8.960;2022-10-29T07:00:40;97717.03;;;13.61;76.66
3150;BME280;32503;47.748;8.960;2022-10-29T07:03:10;97725.78;;;13.71;76.54
3150;BME280;32503;47.748;8.960;2022-10-29T07:05:37;97724.38;;;13.77;76.21
3150;BME280;32503;47.748;8.960;2022-10-29T07:08:04;97732.41;;;13.89;76.06
3150;BME280;32503;47.748;8.960;2022-10-29T07:10:33;97737.59;;;13.94;76.24
3150;BME280;32503;47.748;8.960;2022-10-29T07:13:01;97736.56;;;14.02;76.05
3150;BME280;32503;47.748;8.960;2022-10-29T07:15:29;97718.72;;;14.01;76.19
3150;BME280;32503;47.748;8.960;2022-10-29T07:17:58;97727.59;;;14.18;76.11
3150;BME280;32503;47.748;8.960;2022-10-29T07:20:27;97735.63;;;14.30;76.07
3150;BME280;32503;47.748;8.960;2022-10-29T07:22:55;97742.03;;;14.41;76.08
3150;BME280;32503;47.748;8.960;2022-10-29T07:25:23;97743.50;;;14.55;75.61
3150;BME280;32503;47.748;8.960;2022-10-29T07:27:52;97728.38;;;14.57;75.45
3150;BME280;32503;47.748;8.960;2022-10-29T07:30:19;97741.28;;;14.80;75.05
3150;BME280;32503;47.748;8.960;2022-10-29T07:32:47;97741.34;;;14.84;74.59
3150;BME280;32503;47.748;8.960;2022-10-29T07:35:14;97743.41;;;14.90;74.39
3150;BME280;32503;47.748;8.960;2022-10-29T07:37:41;97735.31;;;14.94;74.12
3150;BME280;32503;47.748;8.960;2022-10-29T07:40:09;97746.75;;;15.03;73.86
3150;BME280;32503;47.748;8.960;2022-10-29T07:42:38;97744.88;;;15.07;74.02
3150;BME280;32503;47.748;8.960;2022-10-29T07:45:08;97753.13;;;15.11;73.81
3150;BME280;32503;47.748;8.960;2022-10-29T07:47:35;97755.53;;;15.16;73.56
3150;BME280;32503;47.748;8.960;2022-10-29T07:50:03;97758.41;;;15.23;73.18
3150;BME280;32503;47.748;8.960;2022-10-29T07:52:30;97760.00;;;15.28;73.24
3150;BME280;32503;47.748;8.960;2022-10-29T07:54:57;97758.09;;;15.28;73.24
3150;BME280;32503;47.748;8.960;2022-10-29T07:57:26;97749.69;;;15.37;73.26
3150;BME280;32503;47.748;8.960;2022-10-29T07:59:53;97747.38;;;15.39;72.67
3150;BME280;32503;47.748;8.960;2022-10-29T08:02:21;97749.41;;;15.46;72.68
3150;BME280;32503;47.748;8.960;2022-10-29T08:04:48;97750.56;;;15.45;72.46
3150;BME280;32503;47.748;8.960;2022-10-29T08:07:15;97749.59;;;15.57;72.41
3150;BME280;32503;47.748;8.960;2022-10-29T08:09:42;97746.00;;;15.52;72.53
3150;BME280;32503;47.748;8.960;2022-10-29T08:12:09;97747.59;;;15.53;73.31
3150;BME280;32503;47.748;8.960;2022-10-29T08:14:37;97739.22;;;15.66;72.64
3150;BME280;32503;47.748;8.960;2022-10-29T08:17:04;97750.53;;;15.68;72.62
3150;BME280;32503;47.748;8.960;2022-10-29T08:19:32;97740.34;;;15.65;72.64
3150;BME280;32503;47.748;8.960;2022-10-29T08:21:59;97745.41;;;15.63;72.28
3150;BME280;32503;47.748;8.960;2022-10-29T08:24:26;97740.25;;;15.58;72.10
3150;BME280;32503;47.748;8.960;2022-10-29T08:26:53;97746.06;;;15.56;72.24
3150;BME280;32503;47.748;8.960;2022-10-29T08:29:20;97740.25;;;15.58;72.21
3150;BME280;32503;47.748;8.960;2022-10-29T08:31:47;97742.25;;;15.61;72.72
3150;BME280;32503;47.748;8.960;2022-10-29T08:34:14;97732.19;;;15.65;72.80
3150;BME280;32503;47.748;8.960;2022-10-29T08:36:42;97742.78;;;15.70;72.58
3150;BME280;32503;47.748;8.960;2022-10-29T08:39:09;97731.16;;;15.73;72.83
3150;BME280;32503;47.748;8.960;2022-10-29T08:41:49;97742.69;;;15.89;72.82
3150;BME280;32503;47.748;8.960;2022-10-29T08:44:47;97733.16;;;16.03;72.72
3150;BME280;32503;47.748;8.960;2022-10-29T08:47:21;97720.63;;;15.98;72.35
3150;BME280;32503;47.748;8.960;2022-10-29T08:50:00;97723.16;;;16.14;72.47
3150;BME280;32503;47.748;8.960;2022-10-29T08:52:33;97733.53;;;16.32;71.75
3150;BME280;32503;47.748;8.960;2022-10-29T08:55:11;97734.31;;;16.32;71.52
3150;BME280;32503;47.748;8.960;2022-10-29T08:57:42;97730.38;;;16.29;71.67
3150;BME280;32503;47.748;8.960;2022-10-29T09:00:16;97730.06;;;16.35;71.38
3150;BME280;32503;47.748;8.960;2022-10-29T09:02:44;97725.31;;;16.62;71.05
3150;BME280;32503;47.748;8.960;2022-10-29T09:05:14;97727.72;;;16.71;70.69
3150;BME280;32503;47.748;8.960;2022-10-29T09:08:00;97728.41;;;16.60;70.34
3150;BME280;32503;47.748;8.960;2022-10-29T09:10:36;97732.22;;;16.52;70.52
3150;BME280;32503;47.748;8.960;2022-10-29T09:13:39;97719.63;;;16.44;71.12
3150;BME280;32503;47.748;8.960;2022-10-29T09:16:28;97728.06;;;16.65;71.35
3150;BME280;32503;47.748;8.960;2022-10-29T09:19:13;97722.25;;;16.67;71.32
3150;BME280;32503;47.748;8.960;2022-10-29T09:21:52;97730.38;;;16.97;71.00
3150;BME280;32503;47.748;8.960;2022-10-29T09:24:29;97730.59;;;17.19;70.68
3150;BME280;32503;47.748;8.960;2022-10-29T09:27:04;97719.41;;;17.35;70.47
3150;BME280;32503;47.748;8.960;2022-10-29T09:29:56;97727.03;;;17.59;69.82
3150;BME280;32503;47.748;8.960;2022-10-29T09:32:28;97721.59;;;17.67;68.98
3150;BME280;32503;47.748;8.960;2022-10-29T09:35:02;97722.53;;;17.89;68.81
3150;BME280;32503;47.748;8.960;2022-10-29T09:37:40;97723.72;;;17.88;67.97
3150;BME280;32503;47.748;8.960;2022-10-29T09:40:22;97705.25;;;17.74;67.93
3150;BME280;32503;47.748;8.960;2022-10-29T09:42:53;97719.50;;;18.01;67.51
3150;BME280;32503;47.748;8.960;2022-10-29T09:45:29;97717.53;;;18.02;66.67
3150;BME280;32503;47.748;8.960;2022-10-29T09:48:07;97715.09;;;17.86;67.19
3150;BME280;32503;47.748;8.960;2022-10-29T09:50:40;97702.22;;;17.86;67.41
3150;BME280;32503;47.748;8.960;2022-10-29T09:53:14;97711.03;;;18.31;67.36
3150;BME280;32503;47.748;8.960;2022-10-29T09:55:44;97708.84;;;18.73;66.64
3150;BME280;32503;47.748;8.960;2022-10-29T09:58:20;97718.72;;;19.17;65.63
3150;BME280;32503;47.748;8.960;2022-10-29T10:00:47;97694.03;;;19.35;63.83
3150;BME280;32503;47.748;8.960;2022-10-29T10:03:19;97696.75;;;19.75;63.64
3150;BME280;32503;47.748;8.960;2022-10-29T10:06:00;97690.00;;;20.08;62.30
3150;BME280;32503;47.748;8.960;2022-10-29T10:08:28;97680.56;;;20.23;61.71
3150;BME280;32503;47.748;8.960;2022-10-29T10:10:59;97693.31;;;20.66;61.39
3150;BME280;32503;47.748;8.960;2022-10-29T10:13:29;97691.66;;;20.87;60.53
3150;BME280;32503;47.748;8.960;2022-10-29T10:15:58;97691.94;;;20.99;59.69
3150;BME280;32503;47.748;8.960;2022-10-29T10:18:38;97686.75;;;21.12;59.13
3150;BME280;32503;47.748;8.960;2022-10-29T10:21:08;97686.56;;;20.81;58.69
3150;BME280;32503;47.748;8.960;2022-10-29T10:23:42;97684.69;;;20.68;59.20
3150;BME280;32503;47.748;8.960;2022-10-29T10:26:44;97677.72;;;20.41;59.80
3150;BME280;32503;47.748;8.960;2022-10-29T10:29:15;97655.72;;;20.49;60.63
3150;BME280;32503;47.748;8.960;2022-10-29T10:31:44;97666.13;;;20.90;59.98
3150;BME280;32503;47.748;8.960;2022-10-29T10:34:18;97665.47;;;21.24;59.30
3150;BME280;32503;47.748;8.960;2022-10-29T10:36:51;97663.28;;;21.49;58.93
3150;BME280;32503;47.748;8.960;2022-10-29T10:39:26;97659.91;;;21.76;57.90
3150;BME280;32503;47.748;8.960;2022-10-29T10:41:58;97660.75;;;22.04;57.66
3150;BME280;32503;47.748;8.960;2022-10-29T10:44:27;97653.78;;;22.26;57.13
3150;BME280;32503;47.748;8.960;2022-10-29T10:47:03;97643.47;;;22.34;56.82
3150;BME280;32503;47.748;8.960;2022-10-29T10:49:34;97657.88;;;22.49;55.97
3150;BME280;32503;47.748;8.960;2022-10-29T10:52:04;97655.47;;;22.51;55.89
3150;BME280;32503;47.748;8.960;2022-10-29T10:54:36;97641.63;;;22.27;55.55
3150;BME280;32503;47.748;8.960;2022-10-29T10:57:20;97630.72;;;22.13;55.62
3150;BME280;32503;47.748;8.960;2022-10-29T10:59:57;97631.34;;;22.31;56.14
3150;BME280;32503;47.748;8.960;2022-10-29T11:02:33;97622.19;;;22.38;54.73
3150;BME280;32503;47.748;8.960;2022-10-29T11:05:14;97611.91;;;22.42;54.86
3150;BME280;32503;47.748;8.960;2022-10-29T11:07:48;97617.91;;;22.64;55.05
3150;BME280;32503;47.748;8.960;2022-10-29T11:10:18;97614.91;;;22.79;55.21
3150;BME280;32503;47.748;8.960;2022-10-29T11:12:52;97618.28;;;22.90;54.94
3150;BME280;32503;47.748;8.960;2022-10-29T11:15:31;97620.97;;;22.94;54.67
3150;BME280;32503;47.748;8.960;2022-10-29T11:18:11;97607.13;;;22.97;54.89
3150;BME280;32503;47.748;8.960;2022-10-29T11:20:44;97603.09;;;23.05;54.81
3150;BME280;32503;47.748;8.960;2022-10-29T11:23:26;97617.47;;;23.17;54.71
3150;BME280;32503;47.748;8.960;2022-10-29T11:26:04;97610.66;;;23.25;53.41
3150;BME280;32503;47.748;8.960;2022-10-29T11:28:38;97603.06;;;23.29;53.51
3150;BME280;32503;47.748;8.960;2022-10-29T11:31:15;97604.53;;;23.37;53.20
3150;BME280;32503;47.748;8.960;2022-10-29T11:33:53;97593.69;;;23.46;53.13
3150;BME280;32503;47.748;8.960;2022-10-29T11:36:24;97589.97;;;23.57;52.67
3150;BME280;32503;47.748;8.960;2022-10-29T11:38:58;97578.38;;;23.65;52.38
3150;BME280;32503;47.748;8.960;2022-10-29T11:41:33;97570.38;;;23.71;51.98
3150;BME280;32503;47.748;8.960;2022-10-29T11:44:09;97574.44;;;23.87;51.92
3150;BME280;32503;47.748;8.960;2022-10-29T11:46:51;97565.94;;;23.97;52.16
3150;BME280;32503;47.748;8.960;2022-10-29T11:49:39;97566.38;;;24.12;51.68
3150;BME280;32503;47.748;8.960;2022-10-29T11:52:12;97567.88;;;24.17;51.55
3150;BME280;32503;47.748;8.960;2022-10-29T11:54:53;97564.69;;;24.18;51.90
3150;BME280;32503;47.748;8.960;2022-10-29T11:57:29;97560.94;;;24.09;50.85
3150;BME280;32503;47.748;8.960;2022-10-29T12:00:11;97551.72;;;24.15;51.44
3150;BME280;32503;47.748;8.960;2022-10-29T12:03:01;97552.94;;;24.14;51.90
3150;BME280;32503;47.748;8.960;2022-10-29T12:05:39;97543.44;;;24.15;51.93
3150;BME280;32503;47.748;8.960;2022-10-29T12:08:25;97539.41;;;24.20;51.68
3150;BME280;32503;47.748;8.960;2022-10-29T12:11:00;97544.78;;;24.07;51.41
3150;BME280;32503;47.748;8.960;2022-10-29T12:13:45;97544.06;;;23.87;51.99
3150;BME280;32503;47.748;8.960;2022-10-29T12:16:31;97535.47;;;23.61;52.77
3150;BME280;32503;47.748;8.960;2022-10-29T12:19:11;97535.63;;;23.74;52.89
3150;BME280;32503;47.748;8.960;2022-10-29T12:21:49;97529.91;;;23.84;52.63
3150;BME280;32503;47.748;8.960;2022-10-29T12:24:36;97530.44;;;23.96;52.20
3150;BME280;32503;47.748;8.960;2022-10-29T12:27:12;97526.75;;;24.02;51.63
3150;BME280;32503;47.748;8.960;2022-10-29T12:29:51;97520.81;;;24.04;51.53
3150;BME280;32503;47.748;8.960;2022-10-29T12:32:30;97520.16;;;24.16;51.93
3150;BME280;32503;47.748;8.960;2022-10-29T12:35:05;97522.41;;;24.21;51.26
3150;BME280;32503;47.748;8.960;2022-10-29T12:37:43;97508.53;;;24.05;50.81
3150;BME280;32503;47.748;8.960;2022-10-29T12:40:18;97520.50;;;24.18;51.48
3150;BME280;32503;47.748;8.960;2022-10-29T12:42:48;97517.31;;;24.20;51.50
3150;BME280;32503;47.748;8.960;2022-10-29T12:45:32;97521.91;;;24.27;51.83
3150;BME280;32503;47.748;8.960;2022-10-29T12:48:09;97518.16;;;24.33;51.65
3150;BME280;32503;47.748;8.960;2022-10-29T12:50:49;97517.75;;;24.35;51.53
3150;BME280;32503;47.748;8.960;2022-10-29T12:53:28;97509.78;;;24.37;51.63
3150;BME280;32503;47.748;8.960;2022-10-29T12:55:58;97514.38;;;24.44;51.49
3150;BME280;32503;47.748;8.960;2022-10-29T12:58:47;97508.16;;;24.39;50.61
3150;BME280;32503;47.748;8.960;2022-10-29T13:02:16;97492.63;;;24.46;50.75
3150;BME280;32503;47.748;8.960;2022-10-29T13:05:18;97495.66;;;24.51;50.58
3150;BME280;32503;47.748;8.960;2022-10-29T13:08:21;97500.34;;;24.54;50.39
3150;BME280;32503;47.748;8.960;2022-10-29T13:10:54;97490.28;;;24.44;49.26
3150;BME280;32503;47.748;8.960;2022-10-29T13:13:49;97492.78;;;24.38;49.17
3150;BME280;32503;47.748;8.960;2022-10-29T13:16:23;97488.13;;;24.19;48.82
3150;BME280;32503;47.748;8.960;2022-10-29T13:22:00;97480.81;;;23.92;49.09
3150;BME280;32503;47.748;8.960;2022-10-29T13:24:29;97488.69;;;23.94;48.22
3150;BME280;32503;47.748;8.960;2022-10-29T13:27:02;97482.50;;;24.06;48.73
3150;BME280;32503;47.748;8.960;2022-10-29T13:29:46;97483.00;;;24.17;48.81
3150;BME280;32503;47.748;8.960;2022-10-29T13:32:30;97486.50;;;24.21;47.67
3150;BME280;32503;47.748;8.960;2022-10-29T13:34:58;97481.56;;;24.13;46.89
3150;BME280;32503;47.748;8.960;2022-10-29T13:37:49;97453.94;;;23.76;46.05
3150;BME280;32503;47.748;8.960;2022-10-29T13:41:12;97474.97;;;23.70;46.41